sensor_id;sensor_type;location;lat;lon;timestamp;temperature;humidity
1538;DHT22;12022;52.266;10.522;2023-05-07T00:02:16;11.40;99.90
1538;DHT22;12022;52.266;10.522;2023-05-07T00:04:43;11.40;99.90
1538;DHT22;12022;52.266;10.522;2023-05-07T00:07:11;11.40;99.90
1538;DHT22;12022;52.266;10.522;2023-05-07T00:09:37;11.40;99.90
1538;DHT22;12022;52.266;10.522;2023-05-07T00:12:05;11.40;99.90
1538;DHT22;12022;52.266;10.522;2023-05-07T00:14:31;11.40;99.90
1538;DHT22;12022;52.266;10.522;2023-05-07T00:16:58;11.60;99.90
1538;DHT22;12022;52.266;10.522;2023-05-07T00:19:26;11.50;99.90
1538;DHT22;12022;52.266;10.522;2023-05-07T00:21:53;11.40;99.90
1538;DHT22;12022;52.266;10.522;2023-05-07T00:24:21;11.50;99.90
1538;DHT22;12022;52.266;10.522;2023-05-07T00:26:47;11.50;99.90
1538;DHT22;12022;52.266;10.522;2023-05-07T00:29:14;11.50;99.90
1538;DHT22;12022;52.266;10.522;2023-05-07T00:31:41;11.50;99.90
1538;DHT22;12022;52.266;10.522;2023-05-07T00:34:09;11.80;99.90
1538;DHT22;12022;52.266;10.522;2023-05-07T00:36:36;11.50;99.90
1538;DHT22;12022;52.266;10.522;2023-05-07T00:39:03;11.50;99.90
1538;DHT22;12022;52.266;10.522;2023-05-07T00:41:30;11.50;99.90
1538;DHT22;12022;52.266;10.522;2023-05-07T00:43:57;11.60;99.90
1538;DHT22;12022;52.266;10.522;2023-05-07T00:46:24;11.50;99.90
1538;DHT22;12022;52.266;10.522;2023-05-07T00:48:52;11.60;99.90
1538;DHT22;12022;52.266;10.522;2023-05-07T00:51:20;11.60;99.90
1538;DHT22;12022;52.266;10.522;2023-05-07T00:53:47;11.60;99.90
1538;DHT22;12022;52.266;10.522;2023-05-07T00:56:14;11.60;99.90
1538;DHT22;12022;52.266;10.522;2023-05-07T00:58:41;11.60;99.90
1538;DHT22;12022;52.266;10.522;2023-05-07T01:01:09;11.60;99.90
1538;DHT22;12022;52.266;10.522;2023-05-07T01:03:36;11.60;99.90
1538;DHT22;12022;52.266;10.522;2023-05-07T01:06:05;11.60;99.90
1538;DHT22;12022;52.266;10.522;2023-05-07T01:08:34;11.60;99.90
1538;DHT22;12022;52.266;10.522;2023-05-07T01:11:02;11.50;99.90
1538;DHT22;12022;52.266;10.522;2023-05-07T01:13:30;11.50;99.90
1538;DHT22;12022;52.266;10.522;2023-05-07T01:15:57;11.50;99.90
1538;DHT22;12022;52.266;10.522;2023-05-07T01:18:24;11.50;99.90
1538;DHT22;12022;52.266;10.522;2023-05-07T01:20:52;11.50;99.90
1538;DHT22;12022;52.266;10.522;2023-05-07T01:23:21;11.60;99.90
1538;DHT22;12022;52.266;10.522;2023-05-07T01:25:54;11.60;99.90
1538;DHT22;12022;52.266;10.522;2023-05-07T01:28:21;11.60;99.90
1538;DHT22;12022;52.266;10.522;2023-05-07T01:30:58;11.60;99.90
1538;DHT22;12022;52.266;10.522;2023-05-07T01:33:27;11.60;99.90
1538;DHT22;12022;52.266;10.522;2023-05-07T01:35:56;11.70;99.90
1538;DHT22;12022;52.266;10.522;2023-05-07T01:38:23;11.70;99.90
1538;DHT22;12022;52.266;10.522;2023-05-07T01:40:51;11.70;99.90
1538;DHT22;12022;52.266;10.522;2023-05-07T01:43:18;11.70;99.90
1538;DHT22;12022;52.266;10.522;2023-05-07T01:45:46;11.70;99.90
1538;DHT22;12022;52.266;10.522;2023-05-07T01:48:14;11.60;99.90
1538;DHT22;12022;52.266;10.522;2023-05-07T01:50:42;11.60;99.90
1538;DHT22;12022;52.266;10.522;2023-05-07T01:53:09;11.60;99.90
1538;DHT22;12022;52.266;10.522;2023-05-07T01:55:37;11.50;99.90
1538;DHT22;12022;52.266;10.522;2023-05-07T01:58:04;11.50;99.90
1538;DHT22;12022;52.266;10.522;2023-05-07T02:00:31;11.50;99.90
1538;DHT22;12022;52.266;10.522;2023-05-07T02:02:58;11.50;99.90
1538;DHT22;12022;52.266;10.522;2023-05-07T02:05:26;11.50;99.90
1538;DHT22;12022;52.266;10.522;2023-05-07T02:07:53;11.50;99.90
1538;DHT22;12022;52.266;10.522;2023-05-07T02:10:20;11.60;99.90
1538;DHT22;12022;52.266;10.522;2023-05-07T02:12:46;11.60;99.90
1538;DHT22;12022;52.266;10.522;2023-05-07T02:15:13;11.60;99.90
1538;DHT22;12022;52.266;10.522;2023-05-07T02:18:04;11.60;99.90
1538;DHT22;12022;52.266;10.522;2023-05-07T02:20:33;11.50;99.90
1538;DHT22;12022;52.266;10.522;2023-05-07T02:23:00;11.60;99.90
1538;DHT22;12022;52.266;10.522;2023-05-07T02:25:27;11.40;99.90
1538;DHT22;12022;52.266;10.522;2023-05-07T02:27:53;11.40;99.90
1538;DHT22;12022;52.266;10.522;2023-05-07T02:30:20;11.40;99.90
1538;DHT22;12022;52.266;10.522;2023-05-07T02:32:48;11.40;99.90
1538;DHT22;12022;52.266;10.522;2023-05-07T02:35:15;11.40;99.90
1538;DHT22;12022;52.266;10.522;2023-05-07T02:37:42;11.40;99.90
1538;DHT22;12022;52.266;10.522;2023-05-07T02:40:09;11.40;99.90
1538;DHT22;12022;52.266;10.522;2023-05-07T02:42:37;11.30;99.90
1538;DHT22;12022;52.266;10.522;2023-05-07T02:45:04;11.50;99.90
1538;DHT22;12022;52.266;10.522;2023-05-07T02:47:31;11.30;99.90
1538;DHT22;12022;52.266;10.522;2023-05-07T02:49:58;11.30;99.90
1538;DHT22;12022;52.266;10.522;2023-05-07T02:52:25;11.30;99.90
1538;DHT22;12022;52.266;10.522;2023-05-07T02:54:52;11.20;99.90
1538;DHT22;12022;52.266;10.522;2023-05-07T02:57:19;11.20;99.90
1538;DHT22;12022;52.266;10.522;2023-05-07T02:59:46;11.40;99.90
1538;DHT22;12022;52.266;10.522;2023-05-07T03:02:13;11.20;99.90
1538;DHT22;12022;52.266;10.522;2023-05-07T03:04:40;11.20;99.90
1538;DHT22;12022;52.266;10.522;2023-05-07T03:07:07;11.20;99.90
1538;DHT22;12022;52.266;10.522;2023-05-07T03:09:34;11.20;99.90
1538;DHT22;12022;52.266;10.522;2023-05-07T03:12:01;11.20;99.90
1538;DHT22;12022;52.266;10.522;2023-05-07T03:14:28;11.20;99.90
1538;DHT22;12022;52.266;10.522;2023-05-07T03:16:55;11.30;99.90
1538;DHT22;12022;52.266;10.522;2023-05-07T03:19:22;11.20;99.90
1538;DHT22;12022;52.266;10.522;2023-05-07T03:21:49;11.20;99.90
1538;DHT22;12022;52.266;10.522;2023-05-07T03:24:16;11.20;99.90
1538;DHT22;12022;52.266;10.522;2023-05-07T03:26:43;11.10;99.90
1538;DHT22;12022;52.266;10.522;2023-05-07T03:29:10;11.10;99.90
1538;DHT22;12022;52.266;10.522;2023-05-07T03:31:37;11.10;99.90
1538;DHT22;12022;52.266;10.522;2023-05-07T03:34:04;11.00;99.90
1538;DHT22;12022;52.266;10.522;2023-05-07T03:36:31;11.00;99.90
1538;DHT22;12022;52.266;10.522;2023-05-07T03:38:58;11.30;99.90
1538;DHT22;12022;52.266;10.522;2023-05-07T03:41:25;11.10;99.90
1538;DHT22;12022;52.266;10.522;2023-05-07T03:43:52;11.10;99.90
1538;DHT22;12022;52.266;10.522;2023-05-07T03:46:19;11.10;99.90
1538;DHT22;12022;52.266;10.522;2023-05-07T03:48:46;11.00;99.90
1538;DHT22;12022;52.266;10.522;2023-05-07T03:51:13;11.00;99.90
1538;DHT22;12022;52.266;10.522;2023-05-07T03:53:40;11.30;99.90
1538;DHT22;12022;52.266;10.522;2023-05-07T03:56:07;11.00;99.90
1538;DHT22;12022;52.266;10.522;2023-05-07T03:58:34;11.10;99.90
1538;DHT22;12022;52.266;10.522;2023-05-07T04:01:01;11.10;99.90
1538;DHT22;12022;52.266;10.522;2023-05-07T04:03:29;11.10;99.90
1538;DHT22;12022;52.266;10.522;2023-05-07T04:05:56;11.10;99.90
1538;DHT22;12022;52.266;10.522;2023-05-07T04:08:23;11.10;99.90
1538;DHT22;12022;52.266;10.522;2023-05-07T04:10:55;11.10;99.90
1538;DHT22;12022;52.266;10.522;2023-05-07T04:13:22;11.40;99.90
1538;DHT22;12022;52.266;10.522;2023-05-07T04:15:50;11.20;99.90
1538;DHT22;12022;52.266;10.522;2023-05-07T04:18:17;11.20;99.90
1538;DHT22;12022;52.266;10.522;2023-05-07T04:20:44;11.20;99.90
1538;DHT22;12022;52.266;10.522;2023-05-07T04:23:11;11.20;99.90
1538;DHT22;12022;52.266;10.522;2023-05-07T04:25:38;11.10;99.90
1538;DHT22;12022;52.266;10.522;2023-05-07T04:28:05;11.10;99.90
1538;DHT22;12022;52.266;10.522;2023-05-07T04:30:32;11.00;99.90
1538;DHT22;12022;52.266;10.522;2023-05-07T04:32:59;11.00;99.90
1538;DHT22;12022;52.266;10.522;2023-05-07T04:35:26;11.00;99.90
1538;DHT22;12022;52.266;10.522;2023-05-07T04:37:53;11.10;99.90
1538;DHT22;12022;52.266;10.522;2023-05-07T04:40:20;11.00;99.90
1538;DHT22;12022;52.266;10.522;2023-05-07T04:42:47;11.10;99.90
1538;DHT22;12022;52.266;10.522;2023-05-07T04:45:14;11.10;99.90
1538;DHT22;12022;52.266;10.522;2023-05-07T04:47:41;11.10;99.90
1538;DHT22;12022;52.266;10.522;2023-05-07T04:50:09;11.10;99.90
1538;DHT22;12022;52.266;10.522;2023-05-07T04:52:36;11.10;99.90
1538;DHT22;12022;52.266;10.522;2023-05-07T04:55:03;11.20;99.90
1538;DHT22;12022;52.266;10.522;2023-05-07T04:57:31;11.20;99.90
1538;DHT22;12022;52.266;10.522;2023-05-07T04:59:58;11.40;99.90
1538;DHT22;12022;52.266;10.522;2023-05-07T05:02:25;11.30;99.90
1538;DHT22;12022;52.266;10.522;2023-05-07T05:04:52;11.40;99.90
1538;DHT22;12022;52.266;10.522;2023-05-07T05:07:19;11.60;99.90
1538;DHT22;12022;52.266;10.522;2023-05-07T05:09:46;11.40;99.90
1538;DHT22;12022;52.266;10.522;2023-05-07T05:12:13;11.50;99.90
1538;DHT22;12022;52.266;10.522;2023-05-07T05:14:40;11.60;99.90
1538;DHT22;12022;52.266;10.522;2023-05-07T05:17:07;11.50;99.90
1538;DHT22;12022;52.266;10.522;2023-05-07T05:19:34;11.50;99.90
1538;DHT22;12022;52.266;10.522;2023-05-07T05:22:01;11.50;99.90
1538;DHT22;12022;52.266;10.522;2023-05-07T05:24:28;11.50;99.90
1538;DHT22;12022;52.266;10.522;2023-05-07T05:26:55;11.50;99.90
1538;DHT22;12022;52.266;10.522;2023-05-07T05:29:22;11.60;99.90
1538;DHT22;12022;52.266;10.522;2023-05-07T05:31:49;11.60;99.90
1538;DHT22;12022;52.266;10.522;2023-05-07T05:34:16;11.60;99.90
1538;DHT22;12022;52.266;10.522;2023-05-07T05:36:46;11.60;99.90
1538;DHT22;12022;52.266;10.522;2023-05-07T05:39:13;11.60;99.90
1538;DHT22;12022;52.266;10.522;2023-05-07T05:41:41;11.50;99.90
1538;DHT22;12022;52.266;10.522;2023-05-07T05:44:09;11.60;99.90
1538;DHT22;12022;52.266;10.522;2023-05-07T05:46:36;11.60;99.90
1538;DHT22;12022;52.266;10.522;2023-05-07T05:49:03;11.70;99.90
1538;DHT22;12022;52.266;10.522;2023-05-07T05:51:30;11.90;99.90
1538;DHT22;12022;52.266;10.522;2023-05-07T05:53:57;11.80;99.90
1538;DHT22;12022;52.266;10.522;2023-05-07T05:56:24;11.70;99.90
1538;DHT22;12022;52.266;10.522;2023-05-07T05:58:53;11.70;99.90
1538;DHT22;12022;52.266;10.522;2023-05-07T06:01:21;11.70;99.90
1538;DHT22;12022;52.266;10.522;2023-05-07T06:03:48;11.80;99.90
1538;DHT22;12022;52.266;10.522;2023-05-07T06:06:15;11.70;99.90
1538;DHT22;12022;52.266;10.522;2023-05-07T06:08:42;11.80;99.90
1538;DHT22;12022;52.266;10.522;2023-05-07T06:11:09;11.90;99.90
1538;DHT22;12022;52.266;10.522;2023-05-07T06:13:36;11.90;99.90
1538;DHT22;12022;52.266;10.522;2023-05-07T06:16:04;12.00;99.90
1538;DHT22;12022;52.266;10.522;2023-05-07T06:18:31;12.10;99.90
1538;DHT22;12022;52.266;10.522;2023-05-07T06:20:58;12.20;99.90
1538;DHT22;12022;52.266;10.522;2023-05-07T06:23:25;12.30;99.90
1538;DHT22;12022;52.266;10.522;2023-05-07T06:25:52;12.30;99.90
1538;DHT22;12022;52.266;10.522;2023-05-07T06:28:19;12.40;99.90
1538;DHT22;12022;52.266;10.522;2023-05-07T06:30:47;12.40;99.90
1538;DHT22;12022;52.266;10.522;2023-05-07T06:33:15;12.60;99.90
1538;DHT22;12022;52.266;10.522;2023-05-07T06:35:42;12.60;99.90
1538;DHT22;12022;52.266;10.522;2023-05-07T06:38:09;12.70;99.90
1538;DHT22;12022;52.266;10.522;2023-05-07T06:40:37;12.60;99.90
1538;DHT22;12022;52.266;10.522;2023-05-07T06:43:04;12.60;99.90
1538;DHT22;12022;52.266;10.522;2023-05-07T06:45:32;12.80;99.90
1538;DHT22;12022;52.266;10.522;2023-05-07T06:47:59;12.70;99.90
1538;DHT22;12022;52.266;10.522;2023-05-07T06:50:26;12.80;99.90
1538;DHT22;12022;52.266;10.522;2023-05-07T06:52:53;12.90;99.90
1538;DHT22;12022;52.266;10.522;2023-05-07T06:55:20;13.10;99.90
1538;DHT22;12022;52.266;10.522;2023-05-07T06:57:47;13.20;99.90
1538;DHT22;12022;52.266;10.522;2023-05-07T07:00:14;13.30;99.90
1538;DHT22;12022;52.266;10.522;2023-05-07T07:02:41;13.30;99.90
1538;DHT22;12022;52.266;10.522;2023-05-07T07:05:08;13.40;99.90
1538;DHT22;12022;52.266;10.522;2023-05-07T07:07:36;13.50;99.90
1538;DHT22;12022;52.266;10.522;2023-05-07T07:10:03;13.60;99.90
1538;DHT22;12022;52.266;10.522;2023-05-07T07:12:31;13.60;99.90
1538;DHT22;12022;52.266;10.522;2023-05-07T07:14:58;13.60;99.90
1538;DHT22;12022;52.266;10.522;2023-05-07T07:17:25;13.60;99.90
1538;DHT22;12022;52.266;10.522;2023-05-07T07:19:52;13.60;99.90
1538;DHT22;12022;52.266;10.522;2023-05-07T07:22:19;13.70;99.90
1538;DHT22;12022;52.266;10.522;2023-05-07T07:24:46;13.80;99.90
1538;DHT22;12022;52.266;10.522;2023-05-07T07:27:13;13.70;99.90
1538;DHT22;12022;52.266;10.522;2023-05-07T07:29:40;13.60;99.90
1538;DHT22;12022;52.266;10.522;2023-05-07T07:32:07;13.50;99.90
1538;DHT22;12022;52.266;10.522;2023-05-07T07:34:35;13.40;99.90
1538;DHT22;12022;52.266;10.522;2023-05-07T07:37:04;13.40;99.90
1538;DHT22;12022;52.266;10.522;2023-05-07T07:39:37;13.40;99.90
1538;DHT22;12022;52.266;10.522;2023-05-07T07:42:04;13.30;99.90
1538;DHT22;12022;52.266;10.522;2023-05-07T07:44:31;13.30;99.90
1538;DHT22;12022;52.266;10.522;2023-05-07T07:46:58;13.40;99.90
1538;DHT22;12022;52.266;10.522;2023-05-07T07:49:26;13.40;99.90
1538;DHT22;12022;52.266;10.522;2023-05-07T07:51:53;13.40;99.90
1538;DHT22;12022;52.266;10.522;2023-05-07T07:54:21;13.40;99.90
1538;DHT22;12022;52.266;10.522;2023-05-07T07:56:48;13.40;99.90
1538;DHT22;12022;52.266;10.522;2023-05-07T07:59:18;13.40;99.90
1538;DHT22;12022;52.266;10.522;2023-05-07T08:01:51;13.40;99.90
1538;DHT22;12022;52.266;10.522;2023-05-07T08:04:21;13.60;99.90
1538;DHT22;12022;52.266;10.522;2023-05-07T08:06:49;13.50;99.90
1538;DHT22;12022;52.266;10.522;2023-05-07T08:09:19;13.60;99.90
1538;DHT22;12022;52.266;10.522;2023-05-07T08:11:47;13.70;99.90
1538;DHT22;12022;52.266;10.522;2023-05-07T08:14:14;13.90;99.90
1538;DHT22;12022;52.266;10.522;2023-05-07T08:16:42;13.90;99.90
1538;DHT22;12022;52.266;10.522;2023-05-07T08:19:10;14.00;99.90
1538;DHT22;12022;52.266;10.522;2023-05-07T08:21:39;14.20;99.90
1538;DHT22;12022;52.266;10.522;2023-05-07T08:24:07;14.20;99.90
1538;DHT22;12022;52.266;10.522;2023-05-07T08:26:34;14.10;99.90
1538;DHT22;12022;52.266;10.522;2023-05-07T08:29:03;14.20;99.90
1538;DHT22;12022;52.266;10.522;2023-05-07T08:31:30;14.20;99.90
1538;DHT22;12022;52.266;10.522;2023-05-07T08:33:58;14.30;99.90
1538;DHT22;12022;52.266;10.522;2023-05-07T08:36:25;14.30;99.90
1538;DHT22;12022;52.266;10.522;2023-05-07T08:38:53;14.40;99.90
1538;DHT22;12022;52.266;10.522;2023-05-07T08:41:20;14.40;99.90
1538;DHT22;12022;52.266;10.522;2023-05-07T08:43:49;14.50;99.90
1538;DHT22;12022;52.266;10.522;2023-05-07T08:46:19;14.50;99.90
1538;DHT22;12022;52.266;10.522;2023-05-07T08:48:50;14.70;99.90
1538;DHT22;12022;52.266;10.522;2023-05-07T08:51:20;14.70;99.90
1538;DHT22;12022;52.266;10.522;2023-05-07T08:53:48;14.60;99.90
1538;DHT22;12022;52.266;10.522;2023-05-07T08:56:16;14.70;99.90
1538;DHT22;12022;52.266;10.522;2023-05-07T08:58:46;14.90;99.90
1538;DHT22;12022;52.266;10.522;2023-05-07T09:01:14;15.20;99.90
1538;DHT22;12022;52.266;10.522;2023-05-07T09:03:44;15.10;99.90
1538;DHT22;12022;52.266;10.522;2023-05-07T09:06:14;15.20;99.90
1538;DHT22;12022;52.266;10.522;2023-05-07T09:08:52;15.20;99.90
1538;DHT22;12022;52.266;10.522;2023-05-07T09:11:25;15.40;99.90
1538;DHT22;12022;52.266;10.522;2023-05-07T09:13:56;15.40;99.90
1538;DHT22;12022;52.266;10.522;2023-05-07T09:16:25;15.40;99.90
1538;DHT22;12022;52.266;10.522;2023-05-07T09:18:53;15.40;99.90
1538;DHT22;12022;52.266;10.522;2023-05-07T09:21:21;15.40;99.90
1538;DHT22;12022;52.266;10.522;2023-05-07T09:23:51;15.50;99.90
1538;DHT22;12022;52.266;10.522;2023-05-07T09:26:20;15.60;99.90
1538;DHT22;12022;52.266;10.522;2023-05-07T09:28:50;15.80;99.90
1538;DHT22;12022;52.266;10.522;2023-05-07T09:31:18;16.00;99.90
1538;DHT22;12022;52.266;10.522;2023-05-07T09:33:47;16.10;99.90
1538;DHT22;12022;52.266;10.522;2023-05-07T09:36:15;15.90;99.90
1538;DHT22;12022;52.266;10.522;2023-05-07T09:38:42;15.90;99.90
1538;DHT22;12022;52.266;10.522;2023-05-07T09:41:12;15.90;99.90
1538;DHT22;12022;52.266;10.522;2023-05-07T09:43:40;15.90;99.90
1538;DHT22;12022;52.266;10.522;2023-05-07T09:46:12;16.10;99.90
1538;DHT22;12022;52.266;10.522;2023-05-07T09:48:41;16.40;99.90
1538;DHT22;12022;52.266;10.522;2023-05-07T09:51:18;16.80;99.90
1538;DHT22;12022;52.266;10.522;2023-05-07T09:53:48;17.30;99.90
1538;DHT22;12022;52.266;10.522;2023-05-07T09:56:44;17.60;99.90
1538;DHT22;12022;52.266;10.522;2023-05-07T09:59:13;17.80;99.90
1538;DHT22;12022;52.266;10.522;2023-05-07T10:01:42;17.90;99.90
1538;DHT22;12022;52.266;10.522;2023-05-07T10:04:10;18.10;99.90
1538;DHT22;12022;52.266;10.522;2023-05-07T10:06:38;18.30;99.90
1538;DHT22;12022;52.266;10.522;2023-05-07T10:09:05;18.40;99.90
1538;DHT22;12022;52.266;10.522;2023-05-07T10:11:34;18.70;99.90
1538;DHT22;12022;52.266;10.522;2023-05-07T10:14:04;18.80;99.90
1538;DHT22;12022;52.266;10.522;2023-05-07T10:16:35;18.90;99.90
1538;DHT22;12022;52.266;10.522;2023-05-07T10:19:04;18.80;99.90
1538;DHT22;12022;52.266;10.522;2023-05-07T10:21:34;18.80;99.90
1538;DHT22;12022;52.266;10.522;2023-05-07T10:24:09;18.80;99.90
1538;DHT22;12022;52.266;10.522;2023-05-07T10:26:44;18.80;99.90
1538;DHT22;12022;52.266;10.522;2023-05-07T10:29:25;18.70;99.90
1538;DHT22;12022;52.266;10.522;2023-05-07T10:34:42;18.40;99.90
1538;DHT22;12022;52.266;10.522;2023-05-07T10:37:10;18.00;99.90
1538;DHT22;12022;52.266;10.522;2023-05-07T10:39:41;17.70;99.90
1538;DHT22;12022;52.266;10.522;2023-05-07T10:42:10;17.50;99.90
1538;DHT22;12022;52.266;10.522;2023-05-07T10:44:38;17.40;99.90
1538;DHT22;12022;52.266;10.522;2023-05-07T10:47:12;17.10;99.90
1538;DHT22;12022;52.266;10.522;2023-05-07T10:52:21;16.70;99.90
1538;DHT22;12022;52.266;10.522;2023-05-07T10:57:44;16.60;99.90
1538;DHT22;12022;52.266;10.522;2023-05-07T11:03:05;16.50;99.90
1538;DHT22;12022;52.266;10.522;2023-05-07T11:05:34;16.50;99.90
1538;DHT22;12022;52.266;10.522;2023-05-07T11:08:05;16.40;99.90
1538;DHT22;12022;52.266;10.522;2023-05-07T11:13:15;17.20;99.90
1538;DHT22;12022;52.266;10.522;2023-05-07T11:15:44;17.10;99.90
1538;DHT22;12022;52.266;10.522;2023-05-07T11:18:14;17.30;99.90
1538;DHT22;12022;52.266;10.522;2023-05-07T11:28:39;18.20;99.90
1538;DHT22;12022;52.266;10.522;2023-05-07T11:31:07;18.20;99.90
1538;DHT22;12022;52.266;10.522;2023-05-07T11:33:35;18.30;99.90
1538;DHT22;12022;52.266;10.522;2023-05-07T11:36:03;18.20;99.90
1538;DHT22;12022;52.266;10.522;2023-05-07T11:38:34;18.30;99.90
1538;DHT22;12022;52.266;10.522;2023-05-07T11:41:02;18.30;99.90
1538;DHT22;12022;52.266;10.522;2023-05-07T11:43:32;18.30;99.90
1538;DHT22;12022;52.266;10.522;2023-05-07T11:46:11;18.10;99.90
1538;DHT22;12022;52.266;10.522;2023-05-07T11:48:39;18.40;99.90
1538;DHT22;12022;52.266;10.522;2023-05-07T11:51:07;18.40;99.90
1538;DHT22;12022;52.266;10.522;2023-05-07T11:53:42;18.30;99.90
1538;DHT22;12022;52.266;10.522;2023-05-07T11:56:14;18.20;99.90
1538;DHT22;12022;52.266;10.522;2023-05-07T11:58:42;18.10;99.90
1538;DHT22;12022;52.266;10.522;2023-05-07T12:01:12;17.90;99.90
1538;DHT22;12022;52.266;10.522;2023-05-07T12:03:43;17.70;99.90
1538;DHT22;12022;52.266;10.522;2023-05-07T12:06:15;17.50;99.90
1538;DHT22;12022;52.266;10.522;2023-05-07T12:08:44;17.40;99.90
1538;DHT22;12022;52.266;10.522;2023-05-07T12:11:18;17.30;99.90
1538;DHT22;12022;52.266;10.522;2023-05-07T12:13:48;17.20;99.90
1538;DHT22;12022;52.266;10.522;2023-05-07T12:16:16;17.10;99.90
1538;DHT22;12022;52.266;10.522;2023-05-07T12:18:43;17.10;99.90
1538;DHT22;12022;52.266;10.522;2023-05-07T12:21:10;17.00;99.90
1538;DHT22;12022;52.266;10.522;2023-05-07T12:23:38;17.10;99.90
1538;DHT22;12022;52.266;10.522;2023-05-07T12:26:06;17.10;99.90
1538;DHT22;12022;52.266;10.522;2023-05-07T12:28:37;16.90;99.90
1538;DHT22;12022;52.266;10.522;2023-05-07T12:31:07;16.90;99.90
1538;DHT22;12022;52.266;10.522;2023-05-07T12:33:35;17.00;99.90
1538;DHT22;12022;52.266;10.522;2023-05-07T12:36:05;17.20;99.90
1538;DHT22;12022;52.266;10.522;2023-05-07T12:38:37;17.30;99.90
1538;DHT22;12022;52.266;10.522;2023-05-07T12:41:05;17.50;99.90
1538;DHT22;12022;52.266;10.522;2023-05-07T12:43:33;17.50;99.90
1538;DHT22;12022;52.266;10.522;2023-05-07T12:46:05;17.20;99.90
1538;DHT22;12022;52.266;10.522;2023-05-07T12:48:32;17.10;99.90
1538;DHT22;12022;52.266;10.522;2023-05-07T12:51:01;17.00;99.90
1538;DHT22;12022;52.266;10.522;2023-05-07T12:53:30;16.90;99.90
1538;DHT22;12022;52.266;10.522;2023-05-07T12:55:58;16.90;99.90
1538;DHT22;12022;52.266;10.522;2023-05-07T12:58:32;17.00;99.90
1538;DHT22;12022;52.266;10.522;2023-05-07T13:01:05;17.10;99.90
1538;DHT22;12022;52.266;10.522;2023-05-07T13:03:34;17.20;99.90
1538;DHT22;12022;52.266;10.522;2023-05-07T13:06:04;17.30;99.90
1538;DHT22;12022;52.266;10.522;2023-05-07T13:11:01;17.30;99.90
1538;DHT22;12022;52.266;10.522;2023-05-07T13:13:32;17.40;99.90
1538;DHT22;12022;52.266;10.522;2023-05-07T13:16:00;17.60;99.90
1538;DHT22;12022;52.266;10.522;2023-05-07T13:18:29;17.60;99.90
1538;DHT22;12022;52.266;10.522;2023-05-07T13:20:57;17.60;99.90
1538;DHT22;12022;52.266;10.522;2023-05-07T13:23:24;17.70;99.90
1538;DHT22;12022;52.266;10.522;2023-05-07T13:25:51;17.90;99.90
1538;DHT22;12022;52.266;10.522;2023-05-07T13:28:20;17.80;99.90
1538;DHT22;12022;52.266;10.522;2023-05-07T13:30:48;17.70;99.90
1538;DHT22;12022;52.266;10.522;2023-05-07T13:33:15;17.60;99.90
1538;DHT22;12022;52.266;10.522;2023-05-07T13:35:42;17.50;99.90
1538;DHT22;12022;52.266;10.522;2023-05-07T13:38:09;17.50;99.90
1538;DHT22;12022;52.266;10.522;2023-05-07T13:40:36;17.70;99.90
1538;DHT22;12022;52.266;10.522;2023-05-07T13:43:05;17.50;99.90
1538;DHT22;12022;52.266;10.522;2023-05-07T13:45:32;17.40;99.90
1538;DHT22;12022;52.266;10.522;2023-05-07T13:47:59;17.40;99.90
1538;DHT22;12022;52.266;10.522;2023-05-07T13:50:26;17.30;99.90
1538;DHT22;12022;52.266;10.522;2023-05-07T13:52:53;17.20;99.90
1538;DHT22;12022;52.266;10.522;2023-05-07T13:55:22;17.00;99.90
1538;DHT22;12022;52.266;10.522;2023-05-07T13:57:55;17.00;99.90
1538;DHT22;12022;52.266;10.522;2023-05-07T14:00:24;17.10;99.90
1538;DHT22;12022;52.266;10.522;2023-05-07T14:03:20;17.20;99.90
1538;DHT22;12022;52.266;10.522;2023-05-07T14:05:48;17.10;99.90
1538;DHT22;12022;52.266;10.522;2023-05-07T14:08:16;17.20;99.90
1538;DHT22;12022;52.266;10.522;2023-05-07T14:10:49;17.30;99.90
1538;DHT22;12022;52.266;10.522;2023-05-07T14:13:19;17.50;99.90
1538;DHT22;12022;52.266;10.522;2023-05-07T14:15:46;17.40;99.90
1538;DHT22;12022;52.266;10.522;2023-05-07T14:18:16;17.10;99.90
1538;DHT22;12022;52.266;10.522;2023-05-07T14:20:43;17.00;99.90
1538;DHT22;12022;52.266;10.522;2023-05-07T14:23:10;16.90;99.90
1538;DHT22;12022;52.266;10.522;2023-05-07T14:25:38;16.90;99.90
1538;DHT22;12022;52.266;10.522;2023-05-07T14:28:05;17.10;99.90
1538;DHT22;12022;52.266;10.522;2023-05-07T14:30:34;17.30;99.90
1538;DHT22;12022;52.266;10.522;2023-05-07T14:33:01;17.50;99.90
1538;DHT22;12022;52.266;10.522;2023-05-07T14:35:28;17.60;99.90
1538;DHT22;12022;52.266;10.522;2023-05-07T14:37:55;17.60;99.90
1538;DHT22;12022;52.266;10.522;2023-05-07T14:40:23;17.60;99.90
1538;DHT22;12022;52.266;10.522;2023-05-07T14:42:50;17.70;99.90
1538;DHT22;12022;52.266;10.522;2023-05-07T14:45:17;17.90;99.90
1538;DHT22;12022;52.266;10.522;2023-05-07T14:47:44;17.90;99.90
1538;DHT22;12022;52.266;10.522;2023-05-07T14:50:11;17.80;99.90
1538;DHT22;12022;52.266;10.522;2023-05-07T14:52:38;17.90;99.90
1538;DHT22;12022;52.266;10.522;2023-05-07T14:55:05;17.80;99.90
1538;DHT22;12022;52.266;10.522;2023-05-07T14:57:32;17.70;99.90
1538;DHT22;12022;52.266;10.522;2023-05-07T15:00:03;17.50;99.90
1538;DHT22;12022;52.266;10.522;2023-05-07T15:02:31;17.40;99.90
1538;DHT22;12022;52.266;10.522;2023-05-07T15:04:59;17.10;99.90
1538;DHT22;12022;52.266;10.522;2023-05-07T15:07:26;17.20;99.90
1538;DHT22;12022;52.266;10.522;2023-05-07T15:09:54;17.00;99.90
1538;DHT22;12022;52.266;10.522;2023-05-07T15:12:21;17.00;99.90
1538;DHT22;12022;52.266;10.522;2023-05-07T15:14:49;16.90;99.90
1538;DHT22;12022;52.266;10.522;2023-05-07T15:17:16;17.00;99.90
1538;DHT22;12022;52.266;10.522;2023-05-07T15:19:43;17.10;99.90
1538;DHT22;12022;52.266;10.522;2023-05-07T15:22:11;17.10;99.90
1538;DHT22;12022;52.266;10.522;2023-05-07T15:24:40;17.20;99.90
1538;DHT22;12022;52.266;10.522;2023-05-07T15:27:08;17.20;99.90
1538;DHT22;12022;52.266;10.522;2023-05-07T15:29:35;17.10;99.90
1538;DHT22;12022;52.266;10.522;2023-05-07T15:32:02;17.20;99.90
1538;DHT22;12022;52.266;10.522;2023-05-07T15:34:29;17.20;99.90
1538;DHT22;12022;52.266;10.522;2023-05-07T15:36:58;17.30;99.90
1538;DHT22;12022;52.266;10.522;2023-05-07T15:39:25;17.40;99.90
1538;DHT22;12022;52.266;10.522;2023-05-07T15:41:52;17.50;99.90
1538;DHT22;12022;52.266;10.522;2023-05-07T15:44:19;17.40;99.90
1538;DHT22;12022;52.266;10.522;2023-05-07T15:46:46;17.40;99.90
1538;DHT22;12022;52.266;10.522;2023-05-07T15:49:14;17.40;99.90
1538;DHT22;12022;52.266;10.522;2023-05-07T15:51:41;17.40;99.90
1538;DHT22;12022;52.266;10.522;2023-05-07T15:54:08;17.20;99.90
1538;DHT22;12022;52.266;10.522;2023-05-07T15:56:36;17.20;99.90
1538;DHT22;12022;52.266;10.522;2023-05-07T15:59:03;17.00;99.90
1538;DHT22;12022;52.266;10.522;2023-05-07T16:01:30;17.00;99.90